Terminal Aerodrome Forecast
Issued by NWS

Home | Current Version | Previous Version | Text Only | Print | Product List | Glossary On
Versions: 1 2 3 4 5 6 7 8 9 10 11 12 13 14 15 16
000
FTUS45 KTFX 161400 AAA
TAFHVR
TAF AMD
KHVR 161430Z 1615/1712 04006KT P6SM BKN050
      TEMPO 1616/1619 1SM -SN BR BKN015
     FM161900 09010KT P6SM VCSH SCT040 BKN070
     FM170000 11008KT P6SM SCT050 BKN080=

USA.gov is the U.S. government's official web portal to all federal, state and local government web resources and services.